sensor_id;sensor_type;location;lat;lon;timestamp;pressure;altitude;pressure_sealevel;temperature;humidity
7768;BME280;3928;42.626;23.382;2022-12-07T00:00:51;94142.38;;;8.34;91.60
7768;BME280;3928;42.626;23.382;2022-12-07T00:03:18;94150.91;;;8.36;91.35
7768;BME280;3928;42.626;23.382;2022-12-07T00:05:46;94119.66;;;8.05;92.39
7768;BME280;3928;42.626;23.382;2022-12-07T00:08:13;94148.56;;;8.11;92.99
7768;BME280;3928;42.626;23.382;2022-12-07T00:10:40;94146.09;;;8.05;93.63
7768;BME280;3928;42.626;23.382;2022-12-07T00:13:07;94154.66;;;7.98;93.92
7768;BME280;3928;42.626;23.382;2022-12-07T00:15:35;94144.50;;;7.92;94.25
7768;BME280;3928;42.626;23.382;2022-12-07T00:18:02;94131.78;;;7.87;94.09
7768;BME280;3928;42.626;23.382;2022-12-07T00:20:29;94135.13;;;7.96;94.69
7768;BME280;3928;42.626;23.382;2022-12-07T00:22:56;94137.69;;;7.94;94.30
7768;BME280;3928;42.626;23.382;2022-12-07T00:25:23;94133.41;;;7.91;94.48
7768;BME280;3928;42.626;23.382;2022-12-07T00:27:51;94114.78;;;7.83;95.03
7768;BME280;3928;42.626;23.382;2022-12-07T00:30:18;94120.66;;;7.90;94.62
7768;BME280;3928;42.626;23.382;2022-12-07T00:32:46;94130.88;;;7.90;95.16
7768;BME280;3928;42.626;23.382;2022-12-07T00:35:13;94127.47;;;7.94;95.45
7768;BME280;3928;42.626;23.382;2022-12-07T00:37:40;94124.00;;;7.98;94.81
7768;BME280;3928;42.626;23.382;2022-12-07T00:40:07;94132.47;;;8.03;94.21
7768;BME280;3928;42.626;23.382;2022-12-07T00:42:34;94132.44;;;8.06;94.39
7768;BME280;3928;42.626;23.382;2022-12-07T00:45:01;94135.78;;;8.11;93.85
7768;BME280;3928;42.626;23.382;2022-12-07T00:47:28;94127.22;;;8.15;93.84
7768;BME280;3928;42.626;23.382;2022-12-07T00:49:56;94122.06;;;8.21;93.35
7768;BME280;3928;42.626;23.382;2022-12-07T00:52:23;94131.41;;;8.24;93.25
7768;BME280;3928;42.626;23.382;2022-12-07T00:54:49;94116.91;;;8.25;93.37
7768;BME280;3928;42.626;23.382;2022-12-07T00:57:16;94118.56;;;8.29;92.96
7768;BME280;3928;42.626;23.382;2022-12-07T00:59:43;94116.84;;;8.31;93.50
7768;BME280;3928;42.626;23.382;2022-12-07T01:02:10;94119.38;;;8.35;93.37
7768;BME280;3928;42.626;23.382;2022-12-07T01:04:36;94121.88;;;8.40;92.74
7768;BME280;3928;42.626;23.382;2022-12-07T01:07:05;94126.97;;;8.43;92.75
7768;BME280;3928;42.626;23.382;2022-12-07T01:09:31;94121.09;;;8.32;92.99
7768;BME280;3928;42.626;23.382;2022-12-07T01:11:58;94128.72;;;8.38;92.91
7768;BME280;3928;42.626;23.382;2022-12-07T01:14:25;94130.47;;;8.36;92.87
7768;BME280;3928;42.626;23.382;2022-12-07T01:16:52;94104.16;;;8.21;93.69
7768;BME280;3928;42.626;23.382;2022-12-07T01:19:19;94118.56;;;8.32;93.50
7768;BME280;3928;42.626;23.382;2022-12-07T01:21:45;94116.88;;;8.28;93.78
7768;BME280;3928;42.626;23.382;2022-12-07T01:24:14;94114.47;;;8.14;94.90
7768;BME280;3928;42.626;23.382;2022-12-07T01:26:40;94111.09;;;8.10;94.99
7768;BME280;3928;42.626;23.382;2022-12-07T01:29:07;94109.44;;;8.08;95.16
7768;BME280;3928;42.626;23.382;2022-12-07T01:31:34;94096.66;;;8.05;95.55
7768;BME280;3928;42.626;23.382;2022-12-07T01:34:01;94100.94;;;8.03;94.96
7768;BME280;3928;42.626;23.382;2022-12-07T01:36:30;94098.47;;;7.98;95.92
7768;BME280;3928;42.626;23.382;2022-12-07T01:38:59;94107.69;;;8.11;95.61
7768;BME280;3928;42.626;23.382;2022-12-07T01:41:29;94107.66;;;8.14;94.97
7768;BME280;3928;42.626;23.382;2022-12-07T01:44:21;94104.16;;;8.23;94.59
7768;BME280;3928;42.626;23.382;2022-12-07T01:46:49;94106.66;;;8.28;94.52
7768;BME280;3928;42.626;23.382;2022-12-07T01:49:24;94102.53;;;8.14;94.58
7768;BME280;3928;42.626;23.382;2022-12-07T01:51:57;94110.38;;;7.99;96.24
7768;BME280;3928;42.626;23.382;2022-12-07T01:54:25;94105.28;;;7.96;96.29
7768;BME280;3928;42.626;23.382;2022-12-07T01:56:54;94099.34;;;7.94;96.82
7768;BME280;3928;42.626;23.382;2022-12-07T01:59:24;94088.41;;;7.81;97.03
7768;BME280;3928;42.626;23.382;2022-12-07T02:01:53;94096.81;;;7.94;97.01
7768;BME280;3928;42.626;23.382;2022-12-07T02:04:21;94088.28;;;7.92;96.76
7768;BME280;3928;42.626;23.382;2022-12-07T02:06:49;94084.13;;;7.85;97.51
7768;BME280;3928;42.626;23.382;2022-12-07T02:09:17;94091.75;;;7.88;97.74
7768;BME280;3928;42.626;23.382;2022-12-07T02:11:44;94083.28;;;7.84;97.91
7768;BME280;3928;42.626;23.382;2022-12-07T02:14:12;94075.56;;;7.87;97.57
7768;BME280;3928;42.626;23.382;2022-12-07T02:16:46;94050.94;;;7.82;98.79
7768;BME280;3928;42.626;23.382;2022-12-07T02:22:27;94086.41;;;8.09;97.28
7768;BME280;3928;42.626;23.382;2022-12-07T02:25:07;94094.88;;;8.14;96.94
7768;BME280;3928;42.626;23.382;2022-12-07T02:27:41;94098.22;;;8.19;96.32
7768;BME280;3928;42.626;23.382;2022-12-07T02:30:13;94094.78;;;8.24;95.90
7768;BME280;3928;42.626;23.382;2022-12-07T02:32:46;94081.13;;;8.25;96.04
7768;BME280;3928;42.626;23.382;2022-12-07T02:35:18;94079.47;;;8.20;96.31
7768;BME280;3928;42.626;23.382;2022-12-07T02:37:53;94068.56;;;8.03;96.29
7768;BME280;3928;42.626;23.382;2022-12-07T02:40:28;94074.66;;;7.91;97.67
7768;BME280;3928;42.626;23.382;2022-12-07T02:42:59;94064.59;;;7.76;98.63
7768;BME280;3928;42.626;23.382;2022-12-07T02:45:31;94067.19;;;7.75;98.52
7768;BME280;3928;42.626;23.382;2022-12-07T02:47:59;94069.88;;;7.56;99.95
7768;BME280;3928;42.626;23.382;2022-12-07T02:50:27;94085.28;;;7.50;100.00
7768;BME280;3928;42.626;23.382;2022-12-07T02:52:55;94075.97;;;7.46;100.00
7768;BME280;3928;42.626;23.382;2022-12-07T02:55:26;94075.97;;;7.42;100.00
7768;BME280;3928;42.626;23.382;2022-12-07T02:58:22;94081.78;;;7.57;100.00
7768;BME280;3928;42.626;23.382;2022-12-07T03:01:05;94064.75;;;7.62;100.00
7768;BME280;3928;42.626;23.382;2022-12-07T03:03:35;94062.91;;;7.75;99.49
7768;BME280;3928;42.626;23.382;2022-12-07T03:06:10;94055.16;;;7.86;99.17
7768;BME280;3928;42.626;23.382;2022-12-07T03:08:47;94055.00;;;8.00;98.25
7768;BME280;3928;42.626;23.382;2022-12-07T03:11:22;94053.19;;;8.09;97.23
7768;BME280;3928;42.626;23.382;2022-12-07T03:13:57;94044.63;;;8.13;96.55
7768;BME280;3928;42.626;23.382;2022-12-07T03:16:30;94049.56;;;8.27;95.93
7768;BME280;3928;42.626;23.382;2022-12-07T03:19:03;94050.38;;;8.31;94.54
7768;BME280;3928;42.626;23.382;2022-12-07T03:21:34;94047.97;;;8.18;95.55
7768;BME280;3928;42.626;23.382;2022-12-07T03:24:06;94049.81;;;8.07;95.35
7768;BME280;3928;42.626;23.382;2022-12-07T03:26:38;94020.38;;;7.73;95.73
7768;BME280;3928;42.626;23.382;2022-12-07T03:29:11;93971.38;;;7.37;96.26
7768;BME280;3928;42.626;23.382;2022-12-07T03:31:41;94056.06;;;7.79;97.05
7768;BME280;3928;42.626;23.382;2022-12-07T03:34:14;94050.94;;;7.82;96.36
7768;BME280;3928;42.626;23.382;2022-12-07T03:36:46;94050.09;;;7.80;96.65
7768;BME280;3928;42.626;23.382;2022-12-07T03:39:19;94039.09;;;7.75;96.44
7768;BME280;3928;42.626;23.382;2022-12-07T03:41:49;94050.03;;;7.87;96.51
7768;BME280;3928;42.626;23.382;2022-12-07T03:44:16;94052.53;;;7.94;96.15
7768;BME280;3928;42.626;23.382;2022-12-07T03:46:52;94057.53;;;8.01;96.09
7768;BME280;3928;42.626;23.382;2022-12-07T03:49:26;94055.78;;;8.06;95.60
7768;BME280;3928;42.626;23.382;2022-12-07T03:51:57;94055.78;;;8.08;96.28
7768;BME280;3928;42.626;23.382;2022-12-07T03:54:31;94054.00;;;8.11;95.45
7768;BME280;3928;42.626;23.382;2022-12-07T03:57:01;94054.81;;;8.18;95.16
7768;BME280;3928;42.626;23.382;2022-12-07T03:59:29;94050.50;;;8.21;95.04
7768;BME280;3928;42.626;23.382;2022-12-07T04:02:03;94040.31;;;8.18;94.79
7768;BME280;3928;42.626;23.382;2022-12-07T04:04:31;94050.69;;;8.03;95.06
7768;BME280;3928;42.626;23.382;2022-12-07T04:06:58;94040.56;;;7.97;95.19
7768;BME280;3928;42.626;23.382;2022-12-07T04:09:25;94038.88;;;7.93;95.77
7768;BME280;3928;42.626;23.382;2022-12-07T04:11:52;94032.13;;;7.87;95.72
7768;BME280;3928;42.626;23.382;2022-12-07T04:14:19;94044.84;;;7.94;95.63
7768;BME280;3928;42.626;23.382;2022-12-07T04:16:46;94042.25;;;7.98;95.29
7768;BME280;3928;42.626;23.382;2022-12-07T04:19:15;94035.47;;;7.92;95.56
7768;BME280;3928;42.626;23.382;2022-12-07T04:21:42;94049.88;;;8.00;95.25
7768;BME280;3928;42.626;23.382;2022-12-07T04:24:09;94045.63;;;7.99;95.27
7768;BME280;3928;42.626;23.382;2022-12-07T04:26:37;94045.66;;;7.97;95.51
7768;BME280;3928;42.626;23.382;2022-12-07T04:29:04;94039.13;;;7.72;96.16
7768;BME280;3928;42.626;23.382;2022-12-07T04:31:31;94045.16;;;7.63;97.00
7768;BME280;3928;42.626;23.382;2022-12-07T04:33:59;94040.16;;;7.52;98.19
7768;BME280;3928;42.626;23.382;2022-12-07T04:36:27;94041.13;;;7.39;98.77
7768;BME280;3928;42.626;23.382;2022-12-07T04:38:54;93985.34;;;6.99;98.86
7768;BME280;3928;42.626;23.382;2022-12-07T04:41:22;94048.00;;;7.29;99.47
7768;BME280;3928;42.626;23.382;2022-12-07T04:43:53;94053.09;;;7.34;99.29
7768;BME280;3928;42.626;23.382;2022-12-07T04:46:20;94049.66;;;7.38;99.81
7768;BME280;3928;42.626;23.382;2022-12-07T04:48:47;94057.28;;;7.40;99.50
7768;BME280;3928;42.626;23.382;2022-12-07T04:51:16;94059.78;;;7.44;99.54
7768;BME280;3928;42.626;23.382;2022-12-07T04:53:46;94043.59;;;7.45;99.83
7768;BME280;3928;42.626;23.382;2022-12-07T04:56:13;94035.09;;;7.45;99.03
7768;BME280;3928;42.626;23.382;2022-12-07T04:58:41;94054.56;;;7.59;98.75
7768;BME280;3928;42.626;23.382;2022-12-07T05:01:08;94014.72;;;7.42;98.37
7768;BME280;3928;42.626;23.382;2022-12-07T05:03:35;94046.84;;;7.66;98.69
7768;BME280;3928;42.626;23.382;2022-12-07T05:06:03;94056.25;;;7.60;98.81
7768;BME280;3928;42.626;23.382;2022-12-07T05:08:30;94039.34;;;7.47;98.73
7768;BME280;3928;42.626;23.382;2022-12-07T05:10:58;94058.09;;;7.46;99.31
7768;BME280;3928;42.626;23.382;2022-12-07T05:13:25;94047.06;;;7.40;99.63
7768;BME280;3928;42.626;23.382;2022-12-07T05:15:52;94041.13;;;7.39;99.64
7768;BME280;3928;42.626;23.382;2022-12-07T05:18:19;94042.75;;;7.45;99.26
7768;BME280;3928;42.626;23.382;2022-12-07T05:20:46;94048.72;;;7.48;99.21
7768;BME280;3928;42.626;23.382;2022-12-07T05:23:13;94060.56;;;7.52;98.59
7768;BME280;3928;42.626;23.382;2022-12-07T05:25:40;94058.81;;;7.57;98.71
7768;BME280;3928;42.626;23.382;2022-12-07T05:28:08;94061.38;;;7.60;99.07
7768;BME280;3928;42.626;23.382;2022-12-07T05:30:35;94053.75;;;7.53;98.77
7768;BME280;3928;42.626;23.382;2022-12-07T05:33:02;94038.50;;;7.45;99.60
7768;BME280;3928;42.626;23.382;2022-12-07T05:35:30;94038.63;;;7.31;99.75
7768;BME280;3928;42.626;23.382;2022-12-07T05:37:57;94046.38;;;7.19;100.00
7768;BME280;3928;42.626;23.382;2022-12-07T05:40:24;94055.41;;;7.57;100.00
7768;BME280;3928;42.626;23.382;2022-12-07T05:42:50;94060.47;;;7.65;100.00
7768;BME280;3928;42.626;23.382;2022-12-07T05:45:19;94051.72;;;7.87;100.00
7768;BME280;3928;42.626;23.382;2022-12-07T05:47:45;94044.84;;;7.94;100.00
7768;BME280;3928;42.626;23.382;2022-12-07T05:50:12;94040.59;;;7.91;99.22
7768;BME280;3928;42.626;23.382;2022-12-07T05:52:39;94055.03;;;7.97;100.00
7768;BME280;3928;42.626;23.382;2022-12-07T05:55:07;94049.53;;;8.32;100.00
7768;BME280;3928;42.626;23.382;2022-12-07T05:57:34;94041.09;;;8.90;100.00
7768;BME280;3928;42.626;23.382;2022-12-07T06:00:01;94030.88;;;9.42;100.00
7768;BME280;3928;42.626;23.382;2022-12-07T06:02:28;94042.56;;;10.05;100.00
7768;BME280;3928;42.626;23.382;2022-12-07T06:04:56;94031.31;;;10.57;97.47
7768;BME280;3928;42.626;23.382;2022-12-07T06:07:23;94037.28;;;10.97;91.41
7768;BME280;3928;42.626;23.382;2022-12-07T06:09:49;94041.41;;;11.04;81.74
7768;BME280;3928;42.626;23.382;2022-12-07T06:12:16;94047.69;;;10.91;81.28
7768;BME280;3928;42.626;23.382;2022-12-07T06:15:01;94048.22;;;10.67;81.57
7768;BME280;3928;42.626;23.382;2022-12-07T06:17:29;94053.81;;;10.44;82.68
7768;BME280;3928;42.626;23.382;2022-12-07T06:19:56;94048.28;;;10.22;83.39
7768;BME280;3928;42.626;23.382;2022-12-07T06:22:23;94050.41;;;9.99;84.69
7768;BME280;3928;42.626;23.382;2022-12-07T06:24:50;94055.78;;;9.85;85.70
7768;BME280;3928;42.626;23.382;2022-12-07T06:27:16;94048.22;;;9.77;87.19
7768;BME280;3928;42.626;23.382;2022-12-07T06:29:43;94045.16;;;9.57;86.12
7768;BME280;3928;42.626;23.382;2022-12-07T06:32:10;94011.59;;;9.21;86.46
7768;BME280;3928;42.626;23.382;2022-12-07T06:34:38;94063.38;;;9.40;87.65
7768;BME280;3928;42.626;23.382;2022-12-07T06:37:05;94064.34;;;9.31;88.37
7768;BME280;3928;42.626;23.382;2022-12-07T06:39:32;94069.59;;;9.25;89.59
7768;BME280;3928;42.626;23.382;2022-12-07T06:41:59;94058.63;;;9.16;89.71
7768;BME280;3928;42.626;23.382;2022-12-07T06:44:26;94061.22;;;9.14;89.83
7768;BME280;3928;42.626;23.382;2022-12-07T06:46:54;94065.53;;;9.09;90.50
7768;BME280;3928;42.626;23.382;2022-12-07T06:49:21;94063.94;;;9.03;90.85
7768;BME280;3928;42.626;23.382;2022-12-07T06:51:49;94068.22;;;9.03;91.10
7768;BME280;3928;42.626;23.382;2022-12-07T06:54:16;94059.66;;;9.04;93.98
7768;BME280;3928;42.626;23.382;2022-12-07T06:56:44;94079.25;;;9.06;94.65
7768;BME280;3928;42.626;23.382;2022-12-07T06:59:11;94064.69;;;9.08;93.62
7768;BME280;3928;42.626;23.382;2022-12-07T07:01:37;94062.44;;;8.90;93.16
7768;BME280;3928;42.626;23.382;2022-12-07T07:04:04;94074.47;;;8.82;93.31
7768;BME280;3928;42.626;23.382;2022-12-07T07:06:32;94076.38;;;8.68;94.05
7768;BME280;3928;42.626;23.382;2022-12-07T07:09:02;94067.22;;;8.50;94.53
7768;BME280;3928;42.626;23.382;2022-12-07T07:11:30;94055.44;;;8.37;96.47
7768;BME280;3928;42.626;23.382;2022-12-07T07:13:57;94078.25;;;8.52;97.23
7768;BME280;3928;42.626;23.382;2022-12-07T07:16:28;94064.59;;;8.55;96.50
7768;BME280;3928;42.626;23.382;2022-12-07T07:18:55;94069.59;;;8.64;96.54
7768;BME280;3928;42.626;23.382;2022-12-07T07:21:22;94069.44;;;8.74;96.14
7768;BME280;3928;42.626;23.382;2022-12-07T07:23:49;94056.63;;;8.77;95.76
7768;BME280;3928;42.626;23.382;2022-12-07T07:26:17;94060.72;;;8.91;95.89
7768;BME280;3928;42.626;23.382;2022-12-07T07:28:44;94076.72;;;9.03;94.82
7768;BME280;3928;42.626;23.382;2022-12-07T07:31:10;94064.78;;;9.04;93.63
7768;BME280;3928;42.626;23.382;2022-12-07T07:33:37;94076.59;;;9.13;93.30
7768;BME280;3928;42.626;23.382;2022-12-07T07:36:05;94085.91;;;9.18;93.74
7768;BME280;3928;42.626;23.382;2022-12-07T07:38:32;94077.41;;;9.15;92.12
7768;BME280;3928;42.626;23.382;2022-12-07T07:40:59;94087.88;;;9.01;93.15
7768;BME280;3928;42.626;23.382;2022-12-07T07:43:27;94074.50;;;8.81;93.19
7768;BME280;3928;42.626;23.382;2022-12-07T07:45:54;94082.06;;;8.90;94.18
7768;BME280;3928;42.626;23.382;2022-12-07T07:48:21;94082.78;;;8.98;94.50
7768;BME280;3928;42.626;23.382;2022-12-07T07:50:48;94081.88;;;9.02;94.35
7768;BME280;3928;42.626;23.382;2022-12-07T07:53:14;94083.84;;;8.82;93.97
7768;BME280;3928;42.626;23.382;2022-12-07T07:55:41;94077.06;;;8.81;94.85
7768;BME280;3928;42.626;23.382;2022-12-07T07:58:08;94064.22;;;8.82;94.90
7768;BME280;3928;42.626;23.382;2022-12-07T08:00:36;94074.41;;;8.85;94.77
7768;BME280;3928;42.626;23.382;2022-12-07T08:03:03;94070.22;;;8.81;94.17
7768;BME280;3928;42.626;23.382;2022-12-07T08:05:30;94083.34;;;8.57;94.56
7768;BME280;3928;42.626;23.382;2022-12-07T08:07:57;94086.66;;;8.63;95.67
7768;BME280;3928;42.626;23.382;2022-12-07T08:10:24;94088.28;;;8.70;94.88
7768;BME280;3928;42.626;23.382;2022-12-07T08:12:51;94083.22;;;8.66;95.78
7768;BME280;3928;42.626;23.382;2022-12-07T08:15:38;94083.06;;;8.78;94.87
7768;BME280;3928;42.626;23.382;2022-12-07T08:18:05;94081.19;;;8.88;94.68
7768;BME280;3928;42.626;23.382;2022-12-07T08:20:35;94075.06;;;9.01;94.98
7768;BME280;3928;42.626;23.382;2022-12-07T08:23:03;94055.47;;;8.98;94.11
7768;BME280;3928;42.626;23.382;2022-12-07T08:25:31;94074.69;;;9.25;93.19
7768;BME280;3928;42.626;23.382;2022-12-07T08:27:58;94076.19;;;9.38;93.16
7768;BME280;3928;42.626;23.382;2022-12-07T08:30:26;94039.72;;;9.23;92.18
7768;BME280;3928;42.626;23.382;2022-12-07T08:32:55;94059.84;;;9.47;91.24
7768;BME280;3928;42.626;23.382;2022-12-07T08:35:22;94054.59;;;9.53;91.05
7768;BME280;3928;42.626;23.382;2022-12-07T08:37:49;94060.34;;;9.67;90.59
7768;BME280;3928;42.626;23.382;2022-12-07T08:40:16;94068.97;;;9.63;89.97
7768;BME280;3928;42.626;23.382;2022-12-07T08:42:47;94060.53;;;9.55;90.68
7768;BME280;3928;42.626;23.382;2022-12-07T08:45:16;94069.22;;;9.47;90.65
7768;BME280;3928;42.626;23.382;2022-12-07T08:47:47;94044.06;;;9.19;91.19
7768;BME280;3928;42.626;23.382;2022-12-07T08:50:17;94061.09;;;9.20;91.57
7768;BME280;3928;42.626;23.382;2022-12-07T08:52:44;94067.09;;;9.19;92.08
7768;BME280;3928;42.626;23.382;2022-12-07T08:55:14;94069.69;;;9.18;92.26
7768;BME280;3928;42.626;23.382;2022-12-07T08:57:41;94067.06;;;9.21;92.56
7768;BME280;3928;42.626;23.382;2022-12-07T09:00:09;94066.34;;;9.11;91.77
7768;BME280;3928;42.626;23.382;2022-12-07T09:02:36;94056.09;;;9.14;92.55
7768;BME280;3928;42.626;23.382;2022-12-07T09:05:03;94056.19;;;9.08;92.33
7768;BME280;3928;42.626;23.382;2022-12-07T09:07:32;94049.66;;;8.86;92.98
7768;BME280;3928;42.626;23.382;2022-12-07T09:10:01;94052.91;;;9.00;94.18
7768;BME280;3928;42.626;23.382;2022-12-07T09:12:27;94047.59;;;9.12;93.10
7768;BME280;3928;42.626;23.382;2022-12-07T09:14:54;94056.75;;;9.27;93.34
7768;BME280;3928;42.626;23.382;2022-12-07T09:17:21;94042.03;;;9.40;92.32
7768;BME280;3928;42.626;23.382;2022-12-07T09:19:48;94046.91;;;9.53;91.77
7768;BME280;3928;42.626;23.382;2022-12-07T09:22:15;94038.19;;;9.65;91.29
7768;BME280;3928;42.626;23.382;2022-12-07T09:24:43;94030.19;;;9.82;91.12
7768;BME280;3928;42.626;23.382;2022-12-07T09:27:10;94038.41;;;9.99;89.32
7768;BME280;3928;42.626;23.382;2022-12-07T09:29:37;94022.78;;;10.13;88.95
7768;BME280;3928;42.626;23.382;2022-12-07T09:32:04;94020.97;;;10.16;87.89
7768;BME280;3928;42.626;23.382;2022-12-07T09:34:31;94030.16;;;10.30;87.39
7768;BME280;3928;42.626;23.382;2022-12-07T09:37:00;94024.19;;;10.29;85.89
7768;BME280;3928;42.626;23.382;2022-12-07T09:39:28;94025.03;;;10.31;86.82
7768;BME280;3928;42.626;23.382;2022-12-07T09:41:59;94007.25;;;10.20;86.42
7768;BME280;3928;42.626;23.382;2022-12-07T09:44:29;94013.97;;;10.28;86.48
7768;BME280;3928;42.626;23.382;2022-12-07T09:46:56;93997.88;;;10.19;87.27
7768;BME280;3928;42.626;23.382;2022-12-07T09:49:27;94008.72;;;10.34;86.58
7768;BME280;3928;42.626;23.382;2022-12-07T09:52:16;94000.00;;;10.42;86.97
7768;BME280;3928;42.626;23.382;2022-12-07T09:54:47;94001.09;;;10.29;88.08
7768;BME280;3928;42.626;23.382;2022-12-07T09:57:16;94010.72;;;10.16;87.65
7768;BME280;3928;42.626;23.382;2022-12-07T09:59:44;93994.59;;;10.11;88.11
7768;BME280;3928;42.626;23.382;2022-12-07T10:02:25;93988.69;;;10.08;87.57
7768;BME280;3928;42.626;23.382;2022-12-07T10:04:55;93997.81;;;10.22;91.50
7768;BME280;3928;42.626;23.382;2022-12-07T10:07:23;93988.94;;;10.39;89.88
7768;BME280;3928;42.626;23.382;2022-12-07T10:09:50;93982.72;;;10.49;88.43
7768;BME280;3928;42.626;23.382;2022-12-07T10:12:19;93975.88;;;10.49;88.36
7768;BME280;3928;42.626;23.382;2022-12-07T10:14:54;93973.16;;;10.57;87.85
7768;BME280;3928;42.626;23.382;2022-12-07T10:17:34;93979.66;;;10.72;87.43
7768;BME280;3928;42.626;23.382;2022-12-07T10:20:16;93977.75;;;10.81;86.68
7768;BME280;3928;42.626;23.382;2022-12-07T10:22:59;93975.94;;;10.85;85.20
7768;BME280;3928;42.626;23.382;2022-12-07T10:25:28;93964.78;;;10.86;85.08
7768;BME280;3928;42.626;23.382;2022-12-07T10:28:00;93967.06;;;10.98;86.00
7768;BME280;3928;42.626;23.382;2022-12-07T10:30:27;93973.53;;;11.15;84.19
7768;BME280;3928;42.626;23.382;2022-12-07T10:32:54;93963.09;;;11.21;84.45
7768;BME280;3928;42.626;23.382;2022-12-07T10:35:24;93949.78;;;11.40;83.46
7768;BME280;3928;42.626;23.382;2022-12-07T10:37:53;93941.69;;;11.54;82.12
7768;BME280;3928;42.626;23.382;2022-12-07T10:40:26;93904.22;;;11.15;80.77
7768;BME280;3928;42.626;23.382;2022-12-07T10:43:03;93949.03;;;11.37;81.21
7768;BME280;3928;42.626;23.382;2022-12-07T10:45:30;93947.06;;;11.45;82.43
7768;BME280;3928;42.626;23.382;2022-12-07T10:48:02;93911.66;;;11.56;97.55
7768;BME280;3928;42.626;23.382;2022-12-07T10:50:55;93949.09;;;11.99;86.63
7768;BME280;3928;42.626;23.382;2022-12-07T10:57:04;93939.66;;;12.29;78.82
7768;BME280;3928;42.626;23.382;2022-12-07T10:59:55;93929.66;;;12.20;81.15
7768;BME280;3928;42.626;23.382;2022-12-07T11:02:38;93919.19;;;12.54;93.51
7768;BME280;3928;42.626;23.382;2022-12-07T11:05:18;93812.34;;;12.14;79.51
7768;BME280;3928;42.626;23.382;2022-12-07T11:07:55;93891.94;;;12.75;77.16
7768;BME280;3928;42.626;23.382;2022-12-07T11:10:30;93909.44;;;12.92;75.81
7768;BME280;3928;42.626;23.382;2022-12-07T11:13:17;93908.63;;;12.89;75.23
7768;BME280;3928;42.626;23.382;2022-12-07T11:16:04;93927.53;;;12.88;75.44
7768;BME280;3928;42.626;23.382;2022-12-07T11:18:40;93916.22;;;12.66;74.59
7768;BME280;3928;42.626;23.382;2022-12-07T11:21:18;93898.56;;;12.55;76.33
7768;BME280;3928;42.626;23.382;2022-12-07T11:23:53;93904.56;;;12.54;76.23
7768;BME280;3928;42.626;23.382;2022-12-07T11:26:34;93918.09;;;12.33;76.22
7768;BME280;3928;42.626;23.382;2022-12-07T11:29:19;93904.78;;;12.20;77.37
7768;BME280;3928;42.626;23.382;2022-12-07T11:32:00;93868.09;;;12.14;77.88
7768;BME280;3928;42.626;23.382;2022-12-07T11:34:37;93882.47;;;12.19;77.73
7768;BME280;3928;42.626;23.382;2022-12-07T11:37:10;93890.03;;;12.25;77.74
7768;BME280;3928;42.626;23.382;2022-12-07T11:39:42;93880.41;;;12.32;77.40
7768;BME280;3928;42.626;23.382;2022-12-07T11:42:15;93886.03;;;12.45;76.65
7768;BME280;3928;42.626;23.382;2022-12-07T11:44:49;93876.41;;;12.50;76.20
7768;BME280;3928;42.626;23.382;2022-12-07T11:47:26;93856.91;;;12.43;76.37
7768;BME280;3928;42.626;23.382;2022-12-07T11:50:01;93866.50;;;12.38;76.12
7768;BME280;3928;42.626;23.382;2022-12-07T11:52:35;93859.66;;;12.37;77.29
7768;BME280;3928;42.626;23.382;2022-12-07T11:55:16;93859.56;;;12.40;77.49
7768;BME280;3928;42.626;23.382;2022-12-07T11:57:48;93867.00;;;12.49;76.04
7768;BME280;3928;42.626;23.382;2022-12-07T12:00:19;93837.25;;;12.40;75.56
7768;BME280;3928;42.626;23.382;2022-12-07T12:02:52;93854.94;;;12.51;77.44
7768;BME280;3928;42.626;23.382;2022-12-07T12:05:23;93847.44;;;12.71;76.96
7768;BME280;3928;42.626;23.382;2022-12-07T12:07:59;93848.13;;;13.03;78.58
7768;BME280;3928;42.626;23.382;2022-12-07T12:10:49;93847.19;;;13.55;75.26
7768;BME280;3928;42.626;23.382;2022-12-07T12:16:44;93841.19;;;14.25;70.61
7768;BME280;3928;42.626;23.382;2022-12-07T12:19:24;93838.66;;;14.47;69.00
7768;BME280;3928;42.626;23.382;2022-12-07T12:21:56;93775.69;;;14.27;67.43
7768;BME280;3928;42.626;23.382;2022-12-07T12:24:27;93835.84;;;14.95;67.20
7768;BME280;3928;42.626;23.382;2022-12-07T12:27:01;93831.72;;;15.11;65.72
7768;BME280;3928;42.626;23.382;2022-12-07T12:29:33;93828.75;;;15.41;62.67
7768;BME280;3928;42.626;23.382;2022-12-07T12:32:11;93827.94;;;15.59;62.88
7768;BME280;3928;42.626;23.382;2022-12-07T12:34:57;93820.41;;;15.94;61.34
7768;BME280;3928;42.626;23.382;2022-12-07T12:37:45;93813.19;;;16.19;58.29
7768;BME280;3928;42.626;23.382;2022-12-07T12:40:37;93805.09;;;16.27;58.05
7768;BME280;3928;42.626;23.382;2022-12-07T12:46:46;93804.81;;;16.14;57.65
7768;BME280;3928;42.626;23.382;2022-12-07T12:49:55;93814.19;;;16.35;57.74
7768;BME280;3928;42.626;23.382;2022-12-07T12:53:02;93822.00;;;16.53;57.44
7768;BME280;3928;42.626;23.382;2022-12-07T12:55:50;93817.22;;;16.81;56.62
7768;BME280;3928;42.626;23.382;2022-12-07T12:58:29;93809.19;;;17.03;54.70
7768;BME280;3928;42.626;23.382;2022-12-07T13:04:00;93796.94;;;17.07;53.23
7768;BME280;3928;42.626;23.382;2022-12-07T13:06:35;93804.72;;;17.07;53.09
7768;BME280;3928;42.626;23.382;2022-12-07T13:09:04;93799.84;;;17.18;53.76
7768;BME280;3928;42.626;23.382;2022-12-07T13:11:33;93794.63;;;17.35;53.59
7768;BME280;3928;42.626;23.382;2022-12-07T13:17:08;93808.56;;;18.00;50.80
7768;BME280;3928;42.626;23.382;2022-12-07T13:19:56;93810.69;;;18.25;50.00
7768;BME280;3928;42.626;23.382;2022-12-07T13:22:44;93821.16;;;18.39;48.85
7768;BME280;3928;42.626;23.382;2022-12-07T13:25:20;93818.56;;;18.55;47.95
7768;BME280;3928;42.626;23.382;2022-12-07T13:27:54;93800.13;;;18.44;48.05
7768;BME280;3928;42.626;23.382;2022-12-07T13:30:23;93813.19;;;18.42;48.40
7768;BME280;3928;42.626;23.382;2022-12-07T13:32:52;93811.88;;;18.35;48.61
7768;BME280;3928;42.626;23.382;2022-12-07T13:35:33;93811.69;;;18.38;48.15
7768;BME280;3928;42.626;23.382;2022-12-07T13:38:14;93798.28;;;18.30;47.82
7768;BME280;3928;42.626;23.382;2022-12-07T13:40:42;93810.25;;;18.17;47.95
7768;BME280;3928;42.626;23.382;2022-12-07T13:43:25;93814.34;;;17.90;48.41
7768;BME280;3928;42.626;23.382;2022-12-07T13:45:56;93800.84;;;17.66;49.36
7768;BME280;3928;42.626;23.382;2022-12-07T13:48:29;93798.44;;;17.45;50.31
7768;BME280;3928;42.626;23.382;2022-12-07T13:50:58;93792.56;;;17.24;50.58
7768;BME280;3928;42.626;23.382;2022-12-07T13:53:28;93797.78;;;17.07;50.94
7768;BME280;3928;42.626;23.382;2022-12-07T13:55:56;93794.50;;;16.86;51.56